createdAt,value
2019-03-26T00:00:56.511Z,5.43
2019-03-26T00:03:23.746Z,5.33
2019-03-26T00:05:51.049Z,5.29
2019-03-26T00:08:18.296Z,5.31
2019-03-26T00:10:45.505Z,5.23
2019-03-26T00:13:12.824Z,5.25
2019-03-26T00:15:40.064Z,5.35
2019-03-26T00:18:07.374Z,5.50
2019-03-26T00:20:34.702Z,5.49
2019-03-26T00:23:02.040Z,5.29
2019-03-26T00:25:29.414Z,5.41
2019-03-26T00:27:56.721Z,5.38
2019-03-26T00:30:24.095Z,5.37
2019-03-26T00:32:51.421Z,5.28
2019-03-26T00:35:18.751Z,5.39
2019-03-26T00:37:46.104Z,5.27
2019-03-26T00:40:13.535Z,5.29
2019-03-26T00:42:41.710Z,5.46
2019-03-26T00:45:09.046Z,5.48
2019-03-26T00:47:36.250Z,5.51
2019-03-26T00:50:04.321Z,5.49
2019-03-26T00:52:31.626Z,5.49
2019-03-26T00:54:58.969Z,5.57
2019-03-26T00:57:26.091Z,5.40
2019-03-26T00:59:53.504Z,5.50
2019-03-26T01:02:20.926Z,5.38
2019-03-26T01:04:48.202Z,5.35
2019-03-26T01:07:15.426Z,5.28
2019-03-26T01:09:42.754Z,5.33
2019-03-26T01:12:09.961Z,5.34
2019-03-26T01:14:37.291Z,5.12
2019-03-26T01:17:04.520Z,5.31
2019-03-26T01:19:31.848Z,5.24
2019-03-26T01:21:59.163Z,5.26
2019-03-26T01:24:26.513Z,5.32
2019-03-26T01:26:53.846Z,5.34
2019-03-26T01:29:21.179Z,5.28
2019-03-26T01:31:48.412Z,5.30
2019-03-26T01:34:15.755Z,5.26
2019-03-26T01:36:43.053Z,5.26
2019-03-26T01:39:10.400Z,5.14
2019-03-26T01:41:37.710Z,4.97
2019-03-26T01:44:05.036Z,5.33
2019-03-26T01:46:32.340Z,5.22
2019-03-26T01:48:59.656Z,5.16
2019-03-26T01:51:26.953Z,5.16
2019-03-26T01:53:54.203Z,5.16
2019-03-26T01:56:21.438Z,5.13
2019-03-26T01:58:48.751Z,5.13
2019-03-26T02:01:16.106Z,5.14
2019-03-26T02:03:43.332Z,5.11
2019-03-26T02:06:10.721Z,5.10
2019-03-26T02:08:38.258Z,5.10
2019-03-26T02:11:05.580Z,5.10
2019-03-26T02:13:32.923Z,5.14
2019-03-26T02:16:00.267Z,5.09
2019-03-26T02:18:27.580Z,5.00
2019-03-26T02:20:54.927Z,4.96
2019-03-26T02:23:22.292Z,5.03
2019-03-26T02:25:49.548Z,4.93
2019-03-26T02:28:16.873Z,4.93
2019-03-26T02:30:44.200Z,5.09
2019-03-26T02:33:11.527Z,5.00
2019-03-26T02:35:38.869Z,5.00
2019-03-26T02:38:06.614Z,4.94
2019-03-26T02:40:33.949Z,4.81
2019-03-26T02:43:01.178Z,5.01
2019-03-26T02:45:28.515Z,4.91
2019-03-26T02:47:55.844Z,4.98
2019-03-26T02:50:23.207Z,4.87
2019-03-26T02:52:51.774Z,4.87
2019-03-26T02:55:19.088Z,4.91
2019-03-26T02:57:46.456Z,4.86
2019-03-26T03:00:13.999Z,4.74
2019-03-26T03:02:41.361Z,4.74
2019-03-26T03:05:08.787Z,4.91
2019-03-26T03:07:36.090Z,4.91
2019-03-26T03:10:04.016Z,4.79
2019-03-26T03:12:33.230Z,4.79
2019-03-26T03:15:00.674Z,4.74
2019-03-26T03:17:28.009Z,4.82
2019-03-26T03:19:55.361Z,4.92
2019-03-26T03:22:23.197Z,4.78
2019-03-26T03:24:50.457Z,4.80
2019-03-26T03:27:17.815Z,4.80
2019-03-26T03:29:45.145Z,4.78
2019-03-26T03:32:12.469Z,4.78
2019-03-26T03:34:39.912Z,4.82
2019-03-26T03:37:07.236Z,4.76
2019-03-26T03:39:34.488Z,4.76
2019-03-26T03:42:01.811Z,4.72
2019-03-26T03:44:29.180Z,4.60
2019-03-26T03:46:57.221Z,4.60
2019-03-26T03:49:26.942Z,4.65
2019-03-26T03:51:56.887Z,4.61
2019-03-26T03:54:24.431Z,4.63
2019-03-26T03:56:53.580Z,4.57
2019-03-26T03:59:21.715Z,4.53
2019-03-26T04:01:48.949Z,4.51
2019-03-26T04:04:16.199Z,4.59
2019-03-26T04:06:43.532Z,4.55
2019-03-26T04:09:10.743Z,4.63
2019-03-26T04:11:38.123Z,4.58
2019-03-26T04:14:05.448Z,4.58
2019-03-26T04:16:32.791Z,4.61
2019-03-26T04:18:59.998Z,4.56
2019-03-26T04:21:27.335Z,4.62
2019-03-26T04:23:54.551Z,4.59
2019-03-26T04:26:21.793Z,4.53
2019-03-26T04:28:48.971Z,4.57
2019-03-26T04:31:16.193Z,4.51
2019-03-26T04:33:43.529Z,4.55
2019-03-26T04:36:24.707Z,4.59
2019-03-26T04:38:39.871Z,4.64
2019-03-26T04:41:07.202Z,4.53
2019-03-26T04:43:34.521Z,4.53
2019-03-26T04:46:01.867Z,4.51
2019-03-26T04:48:29.081Z,4.51
2019-03-26T04:50:56.370Z,4.47
2019-03-26T04:53:23.588Z,4.45
2019-03-26T04:55:50.980Z,4.40
2019-03-26T04:58:18.205Z,4.43
2019-03-26T05:00:45.455Z,4.31
2019-03-26T05:03:12.776Z,4.51
2019-03-26T05:05:40.108Z,4.54
2019-03-26T05:08:07.434Z,4.55
2019-03-26T05:10:34.652Z,4.47
2019-03-26T05:13:01.998Z,4.42
2019-03-26T05:15:29.311Z,4.33
2019-03-26T05:17:56.989Z,4.36
2019-03-26T05:20:24.360Z,4.32
2019-03-26T05:22:51.605Z,4.32
2019-03-26T05:25:19.046Z,4.41
2019-03-26T05:27:46.283Z,4.46
2019-03-26T05:30:15.403Z,4.48
2019-03-26T05:32:42.735Z,4.45
2019-03-26T05:35:09.952Z,4.47
2019-03-26T05:37:37.371Z,4.51
2019-03-26T05:40:06.732Z,4.43
2019-03-26T05:42:33.964Z,4.48
2019-03-26T05:45:01.292Z,4.43
2019-03-26T05:47:28.509Z,4.61
2019-03-26T05:49:55.723Z,4.56
2019-03-26T05:52:23.057Z,4.54
2019-03-26T05:54:50.272Z,4.59
2019-03-26T05:57:17.616Z,4.61
2019-03-26T05:59:44.836Z,4.61
2019-03-26T06:02:15.202Z,4.63
2019-03-26T06:04:41.173Z,4.63
2019-03-26T06:07:08.508Z,4.64
2019-03-26T06:09:35.811Z,4.66
2019-03-26T06:12:03.164Z,4.71
2019-03-26T06:14:30.483Z,4.78
2019-03-26T06:16:57.699Z,4.63
2019-03-26T06:19:25.038Z,4.76
2019-03-26T06:21:52.267Z,4.75
2019-03-26T06:24:19.661Z,4.75
2019-03-26T06:26:46.900Z,4.68
2019-03-26T06:29:14.243Z,4.82
2019-03-26T06:31:41.472Z,4.90
2019-03-26T06:34:10.510Z,4.82
2019-03-26T06:36:37.934Z,4.90
2019-03-26T06:39:07.026Z,5.22
2019-03-26T06:41:34.323Z,5.22
2019-03-26T06:44:01.646Z,5.27
2019-03-26T06:46:28.946Z,5.36
2019-03-26T06:48:56.187Z,5.26
2019-03-26T06:51:23.501Z,5.31
2019-03-26T06:53:50.899Z,5.40
2019-03-26T06:56:18.106Z,5.45
2019-03-26T06:58:45.341Z,5.52
2019-03-26T07:01:12.675Z,5.53
2019-03-26T07:03:40.015Z,5.64
2019-03-26T07:06:07.331Z,5.50
2019-03-26T07:08:35.071Z,5.72
2019-03-26T07:11:02.380Z,5.79
2019-03-26T07:13:29.618Z,6.16
2019-03-26T07:15:56.847Z,6.29
2019-03-26T07:18:24.166Z,6.43
2019-03-26T07:20:51.524Z,6.21
2019-03-26T07:23:18.868Z,6.03
2019-03-26T07:25:46.186Z,6.15
2019-03-26T07:28:13.515Z,6.25
2019-03-26T07:30:43.612Z,6.53
2019-03-26T07:33:11.004Z,6.19
2019-03-26T07:35:38.361Z,6.04
2019-03-26T07:38:05.688Z,6.55
2019-03-26T07:40:33.026Z,6.39
2019-03-26T07:43:00.343Z,6.48
2019-03-26T07:45:27.672Z,6.24
2019-03-26T07:47:55.044Z,6.13
2019-03-26T07:50:22.372Z,5.74
2019-03-26T07:52:49.717Z,5.53
2019-03-26T07:55:17.045Z,6.03
2019-03-26T07:57:44.259Z,6.73
2019-03-26T08:00:12.033Z,7.34
2019-03-26T08:02:39.418Z,7.13
2019-03-26T08:05:07.813Z,6.22
2019-03-26T08:07:35.127Z,6.00
2019-03-26T08:10:02.479Z,6.29
2019-03-26T08:12:32.615Z,6.23
2019-03-26T08:14:58.874Z,6.22
2019-03-26T08:17:26.190Z,6.56
2019-03-26T08:19:53.524Z,6.81
2019-03-26T08:22:20.740Z,6.87
2019-03-26T08:24:48.057Z,6.12
2019-03-26T08:27:15.395Z,6.02
2019-03-26T08:29:42.616Z,5.93
2019-03-26T08:32:10.038Z,6.08
2019-03-26T08:34:37.361Z,5.97
2019-03-26T08:37:04.697Z,6.16
2019-03-26T08:39:32.000Z,5.86
2019-03-26T08:41:59.331Z,6.46
2019-03-26T08:44:26.529Z,6.39
2019-03-26T08:46:53.755Z,6.60
2019-03-26T08:49:21.127Z,7.35
2019-03-26T08:51:48.343Z,7.95
2019-03-26T08:54:15.588Z,8.58
2019-03-26T08:56:42.920Z,8.15
2019-03-26T08:59:10.264Z,8.89
2019-03-26T09:01:37.485Z,9.26
2019-03-26T09:04:04.693Z,9.77
2019-03-26T09:06:32.020Z,9.34
2019-03-26T09:08:59.326Z,8.60
2019-03-26T09:11:26.647Z,10.15
2019-03-26T09:13:53.851Z,11.11
2019-03-26T09:16:21.272Z,11.20
2019-03-26T09:18:48.464Z,9.83
2019-03-26T09:21:15.815Z,8.55
2019-03-26T09:23:43.121Z,8.67
2019-03-26T09:26:10.346Z,8.50
2019-03-26T09:28:37.575Z,8.25
2019-03-26T09:31:04.934Z,8.51
2019-03-26T09:33:32.276Z,7.91
2019-03-26T09:35:59.687Z,7.68
2019-03-26T09:38:38.414Z,7.64
2019-03-26T09:40:56.166Z,7.29
2019-03-26T09:43:23.379Z,7.19
2019-03-26T09:45:50.751Z,6.86
2019-03-26T09:48:18.109Z,7.00
2019-03-26T09:50:45.508Z,7.33
2019-03-26T09:53:13.007Z,7.40
2019-03-26T09:55:40.383Z,8.13
2019-03-26T09:58:07.712Z,8.83
2019-03-26T10:00:35.122Z,9.83
2019-03-26T10:03:02.493Z,9.45
2019-03-26T10:05:29.793Z,8.72
2019-03-26T10:07:57.112Z,8.00
2019-03-26T10:10:24.423Z,7.85
2019-03-26T10:12:51.757Z,7.81
2019-03-26T10:15:19.055Z,7.89
2019-03-26T10:17:46.396Z,7.79
2019-03-26T10:20:13.982Z,7.54
2019-03-26T10:22:41.328Z,7.35
2019-03-26T10:25:10.907Z,7.37
2019-03-26T10:27:38.287Z,7.63
2019-03-26T10:30:06.750Z,8.10
2019-03-26T10:32:34.505Z,8.21
2019-03-26T10:35:01.816Z,7.75
2019-03-26T10:37:29.143Z,7.66
2019-03-26T10:39:56.444Z,7.63
2019-03-26T10:42:23.779Z,7.61
2019-03-26T10:44:51.025Z,7.83
2019-03-26T10:47:18.358Z,8.02
2019-03-26T10:49:45.573Z,8.05
2019-03-26T10:52:12.904Z,8.01
2019-03-26T10:54:40.127Z,8.11
2019-03-26T10:57:07.447Z,7.77
2019-03-26T10:59:34.745Z,8.05
2019-03-26T11:02:02.119Z,7.90
2019-03-26T11:04:29.389Z,7.62
2019-03-26T11:06:56.847Z,7.83
2019-03-26T11:09:27.074Z,7.77
2019-03-26T11:11:53.274Z,7.55
2019-03-26T11:14:20.582Z,7.34
2019-03-26T11:16:47.927Z,7.36
2019-03-26T11:19:15.117Z,7.24
2019-03-26T11:21:42.479Z,7.31
2019-03-26T11:24:09.790Z,7.48
2019-03-26T11:26:37.087Z,7.45
2019-03-26T11:29:04.414Z,7.77
2019-03-26T11:31:31.725Z,7.91
2019-03-26T11:33:59.096Z,7.73
2019-03-26T11:36:26.404Z,7.82
2019-03-26T11:38:53.734Z,7.78
2019-03-26T11:41:21.139Z,7.77
2019-03-26T11:43:48.466Z,7.83
2019-03-26T11:46:15.819Z,8.02
2019-03-26T11:48:43.143Z,8.19
2019-03-26T11:51:10.449Z,8.27
2019-03-26T11:53:37.786Z,7.97
2019-03-26T11:56:05.086Z,7.91
2019-03-26T11:58:32.416Z,7.86
2019-03-26T12:00:59.840Z,7.54
2019-03-26T12:03:27.179Z,7.62
2019-03-26T12:05:54.485Z,7.55
2019-03-26T12:08:21.810Z,7.58
2019-03-26T12:10:49.119Z,7.46
2019-03-26T12:13:16.357Z,7.68
2019-03-26T12:15:43.656Z,7.80
2019-03-26T12:18:10.996Z,7.48
2019-03-26T12:20:38.321Z,7.42
2019-03-26T12:23:05.647Z,7.50
2019-03-26T12:25:33.089Z,7.35
2019-03-26T12:28:00.478Z,7.27
2019-03-26T12:30:32.359Z,7.30
2019-03-26T12:32:59.907Z,7.27
2019-03-26T12:35:28.102Z,7.41
2019-03-26T12:37:55.457Z,7.21
2019-03-26T12:40:22.796Z,7.21
2019-03-26T12:42:50.006Z,7.12
2019-03-26T12:45:17.339Z,7.15
2019-03-26T12:47:44.649Z,7.04
2019-03-26T12:50:12.111Z,7.07
2019-03-26T12:52:39.428Z,7.02
2019-03-26T12:55:06.870Z,7.09
2019-03-26T12:57:34.228Z,7.10
2019-03-26T13:00:01.557Z,7.15
2019-03-26T13:02:28.854Z,7.40
2019-03-26T13:04:56.251Z,7.20
2019-03-26T13:07:23.549Z,7.41
2019-03-26T13:09:50.879Z,7.49
2019-03-26T13:12:18.083Z,7.52
2019-03-26T13:14:45.720Z,7.39
2019-03-26T13:17:13.191Z,7.48
2019-03-26T13:19:40.441Z,7.51
2019-03-26T13:22:07.753Z,7.27
2019-03-26T13:24:35.076Z,7.16
2019-03-26T13:27:22.009Z,7.10
2019-03-26T13:29:49.218Z,7.04
2019-03-26T13:32:16.415Z,6.79
2019-03-26T13:34:43.678Z,6.77
2019-03-26T13:37:10.981Z,6.88
2019-03-26T13:39:38.503Z,7.00
2019-03-26T13:42:05.809Z,6.96
2019-03-26T13:44:33.193Z,7.03
2019-03-26T13:47:00.486Z,7.04
2019-03-26T13:49:27.698Z,6.94
2019-03-26T13:51:55.001Z,6.96
2019-03-26T13:54:22.339Z,6.98
2019-03-26T13:56:49.548Z,6.84
2019-03-26T13:59:16.851Z,6.92
2019-03-26T14:01:44.215Z,6.95
2019-03-26T14:04:11.545Z,6.82
2019-03-26T14:12:06.647Z,6.75
2019-03-26T14:14:33.976Z,6.79
2019-03-26T14:17:01.210Z,6.77
2019-03-26T14:19:28.534Z,6.83
2019-03-26T14:21:55.845Z,6.94
2019-03-26T14:24:23.170Z,6.91
2019-03-26T14:26:51.047Z,6.93
2019-03-26T14:29:19.621Z,6.86
2019-03-26T14:31:52.980Z,6.89
2019-03-26T14:34:20.458Z,6.96
2019-03-26T14:36:47.912Z,7.06
2019-03-26T14:39:15.730Z,7.18
2019-03-26T14:41:43.077Z,7.22
2019-03-26T14:44:10.395Z,7.30
2019-03-26T14:46:37.799Z,7.32
2019-03-26T14:49:05.108Z,7.43
2019-03-26T14:51:34.399Z,7.43
2019-03-26T14:54:02.385Z,7.67
2019-03-26T14:56:30.587Z,7.76
2019-03-26T14:58:57.822Z,7.58
2019-03-26T15:01:25.164Z,7.52
2019-03-26T15:03:52.481Z,7.53
2019-03-26T15:06:19.905Z,7.55
2019-03-26T15:08:47.216Z,7.54
2019-03-26T15:11:14.495Z,7.55
2019-03-26T15:13:41.739Z,7.44
2019-03-26T15:16:09.083Z,7.56
2019-03-26T15:18:36.308Z,7.76
2019-03-26T15:21:03.771Z,7.80
2019-03-26T15:23:31.085Z,7.78
2019-03-26T15:25:58.423Z,7.81
2019-03-26T15:28:25.770Z,7.94
2019-03-26T15:30:53.438Z,7.70
2019-03-26T15:33:20.772Z,7.78
2019-03-26T15:35:48.098Z,8.09
2019-03-26T15:38:15.359Z,7.91
2019-03-26T15:40:45.884Z,7.79
2019-03-26T15:43:13.259Z,7.74
2019-03-26T15:45:40.581Z,7.82
2019-03-26T15:48:07.968Z,7.55
2019-03-26T15:50:40.158Z,7.43
2019-03-26T15:53:07.824Z,7.52
2019-03-26T15:55:35.265Z,7.72
2019-03-26T15:58:02.587Z,7.51
2019-03-26T16:00:31.200Z,7.50
2019-03-26T16:02:58.843Z,6.71
2019-03-26T16:05:28.859Z,7.70
2019-03-26T16:08:27.628Z,7.73
2019-03-26T16:10:59.144Z,7.45
2019-03-26T16:13:26.494Z,7.40
2019-03-26T16:15:56.469Z,7.53
2019-03-26T16:18:26.637Z,7.27
2019-03-26T16:20:59.057Z,7.27
2019-03-26T16:23:28.141Z,7.29
2019-03-26T16:25:55.510Z,7.33
2019-03-26T16:28:31.954Z,7.36
2019-03-26T16:30:59.652Z,7.47
2019-03-26T16:33:31.500Z,7.52
2019-03-26T16:36:36.093Z,7.49
2019-03-26T16:39:12.810Z,7.53
2019-03-26T16:41:51.711Z,7.46
2019-03-26T16:44:28.337Z,7.41
2019-03-26T16:46:55.676Z,7.31
2019-03-26T16:49:23.534Z,7.39
2019-03-26T16:52:01.838Z,7.36
2019-03-26T16:54:31.174Z,7.33
2019-03-26T16:57:07.820Z,7.33
2019-03-26T16:59:40.916Z,7.35
2019-03-26T17:02:10.664Z,7.34
2019-03-26T17:04:38.002Z,7.25
2019-03-26T17:07:05.372Z,7.27
2019-03-26T17:09:44.559Z,7.21
2019-03-26T17:12:13.649Z,7.11
2019-03-26T17:14:43.879Z,7.21
2019-03-26T17:17:11.189Z,7.14
2019-03-26T17:19:38.536Z,7.13
2019-03-26T17:22:06.973Z,7.17
2019-03-26T17:24:34.407Z,7.13
2019-03-26T17:27:01.898Z,7.21
2019-03-26T17:29:29.259Z,7.17
2019-03-26T17:31:56.608Z,7.19
2019-03-26T17:34:26.835Z,7.11
2019-03-26T17:36:54.178Z,6.96
2019-03-26T17:42:17.083Z,6.86
2019-03-26T17:44:37.499Z,6.70
2019-03-26T17:47:04.729Z,6.77
2019-03-26T17:49:32.058Z,6.77
2019-03-26T17:51:59.389Z,6.70
2019-03-26T17:54:26.722Z,6.63
2019-03-26T17:56:54.047Z,6.60
2019-03-26T17:59:21.757Z,6.56
2019-03-26T18:01:48.975Z,6.65
2019-03-26T18:04:16.320Z,6.71
2019-03-26T18:06:43.636Z,6.67
2019-03-26T18:09:10.949Z,6.58
2019-03-26T18:11:38.279Z,6.58
2019-03-26T18:14:05.507Z,6.66
2019-03-26T18:16:33.187Z,6.63
2019-03-26T18:19:00.395Z,6.65
2019-03-26T18:21:27.731Z,6.58
2019-03-26T18:23:55.289Z,6.65
2019-03-26T18:26:22.513Z,6.57
2019-03-26T18:28:49.811Z,6.54
2019-03-26T18:31:17.137Z,6.57
2019-03-26T18:33:44.694Z,6.56
2019-03-26T18:36:11.919Z,6.55
2019-03-26T18:38:39.126Z,6.62
2019-03-26T18:41:06.421Z,6.59
2019-03-26T18:43:33.663Z,6.61
2019-03-26T18:46:00.961Z,6.53
2019-03-26T18:48:28.184Z,6.58
2019-03-26T18:50:55.526Z,6.65
2019-03-26T18:53:22.788Z,6.68
2019-03-26T18:55:50.004Z,6.67
2019-03-26T18:58:17.337Z,6.61
2019-03-26T19:00:44.641Z,6.63
2019-03-26T19:03:14.282Z,6.59
2019-03-26T19:05:41.490Z,6.62
2019-03-26T19:08:08.917Z,6.58
2019-03-26T19:10:36.259Z,6.59
2019-03-26T19:13:03.916Z,6.58
2019-03-26T19:15:31.229Z,6.56
2019-03-26T19:17:58.556Z,6.56
2019-03-26T19:20:25.873Z,6.56
2019-03-26T19:22:53.105Z,6.54
2019-03-26T19:25:20.415Z,6.54
2019-03-26T19:27:47.738Z,6.60
2019-03-26T19:30:15.103Z,6.60
2019-03-26T19:32:42.323Z,6.67
2019-03-26T19:35:09.621Z,6.64
2019-03-26T19:37:36.947Z,6.69
2019-03-26T19:40:04.480Z,6.71
2019-03-26T19:42:31.803Z,6.63
2019-03-26T19:44:59.032Z,6.54
2019-03-26T19:47:26.363Z,6.54
2019-03-26T19:49:53.678Z,6.58
2019-03-26T19:52:20.902Z,6.42
2019-03-26T19:54:48.040Z,6.43
2019-03-26T19:57:17.121Z,6.50
2019-03-26T19:59:44.319Z,6.44
2019-03-26T20:02:11.646Z,6.47
2019-03-26T20:04:38.874Z,6.46
2019-03-26T20:07:06.192Z,6.60
2019-03-26T20:09:33.419Z,6.50
2019-03-26T20:12:00.630Z,6.41
2019-03-26T20:17:23.678Z,6.49
2019-03-26T20:19:53.504Z,6.58
2019-03-26T20:22:20.840Z,6.60
2019-03-26T20:24:48.853Z,6.52
2019-03-26T20:27:16.192Z,6.52
2019-03-26T20:29:43.504Z,6.43
2019-03-26T20:32:10.721Z,6.50
2019-03-26T20:34:38.054Z,6.45
2019-03-26T20:37:05.366Z,6.41
2019-03-26T20:39:32.699Z,6.38
2019-03-26T20:42:02.447Z,6.43
2019-03-26T20:44:30.230Z,6.39
2019-03-26T20:46:57.530Z,6.33
2019-03-26T20:49:26.887Z,6.32
2019-03-26T20:51:54.179Z,6.28
2019-03-26T20:54:21.441Z,6.19
2019-03-26T20:56:48.750Z,6.26
2019-03-26T20:59:16.469Z,6.13
2019-03-26T21:01:45.564Z,6.36
2019-03-26T21:04:12.810Z,6.41
2019-03-26T21:06:40.026Z,6.22
2019-03-26T21:09:07.910Z,6.11
2019-03-26T21:11:35.115Z,6.28
2019-03-26T21:14:04.603Z,6.21
2019-03-26T21:16:31.823Z,6.11
2019-03-26T21:19:00.217Z,6.03
2019-03-26T21:21:27.551Z,6.03
2019-03-26T21:23:54.882Z,6.08
2019-03-26T21:26:22.187Z,5.82
2019-03-26T21:28:49.792Z,5.89
2019-03-26T21:31:17.000Z,6.06
2019-03-26T21:33:44.323Z,6.21
2019-03-26T21:36:11.692Z,5.97
2019-03-26T21:38:38.995Z,5.81
2019-03-26T21:41:06.288Z,5.76
2019-03-26T21:43:33.622Z,5.89
2019-03-26T21:46:00.922Z,5.94
2019-03-26T21:48:28.266Z,5.75
2019-03-26T21:50:55.623Z,5.64
2019-03-26T21:53:22.846Z,5.75
2019-03-26T21:55:50.182Z,5.67
2019-03-26T21:58:17.499Z,5.60
2019-03-26T22:00:44.852Z,5.69
2019-03-26T22:03:12.152Z,5.55
2019-03-26T22:05:39.488Z,5.62
2019-03-26T22:08:06.796Z,5.52
2019-03-26T22:10:34.459Z,5.57
2019-03-26T22:13:01.789Z,5.47
2019-03-26T22:15:29.123Z,5.40
2019-03-26T22:17:56.350Z,5.37
2019-03-26T22:20:23.699Z,5.46
2019-03-26T22:22:51.024Z,5.54
2019-03-26T22:25:18.340Z,5.49
2019-03-26T22:27:45.662Z,5.48
2019-03-26T22:30:13.591Z,5.35
2019-03-26T22:32:40.912Z,5.43
2019-03-26T22:35:09.263Z,5.57
2019-03-26T22:37:36.609Z,5.47
2019-03-26T22:40:04.847Z,5.43
2019-03-26T22:42:32.152Z,5.48
2019-03-26T22:44:59.500Z,5.55
2019-03-26T22:47:26.803Z,5.62
2019-03-26T22:49:57.206Z,5.53
2019-03-26T22:52:23.330Z,5.49
2019-03-26T22:54:50.679Z,5.55
2019-03-26T22:57:18.002Z,5.55
2019-03-26T22:59:45.233Z,5.55
2019-03-26T23:02:12.560Z,5.48
2019-03-26T23:04:39.897Z,5.46
2019-03-26T23:07:07.230Z,5.34
2019-03-26T23:09:34.538Z,5.36
2019-03-26T23:12:02.806Z,5.33
2019-03-26T23:14:30.111Z,5.43
2019-03-26T23:16:57.437Z,5.33
2019-03-26T23:19:24.743Z,5.36
2019-03-26T23:21:53.543Z,5.35
2019-03-26T23:24:20.777Z,5.32
2019-03-26T23:26:47.992Z,5.25
2019-03-26T23:29:15.342Z,5.36
2019-03-26T23:31:42.664Z,5.26
2019-03-26T23:34:09.914Z,5.31
2019-03-26T23:36:37.222Z,5.40
2019-03-26T23:39:05.644Z,5.26
2019-03-26T23:41:32.979Z,5.26
2019-03-26T23:44:00.303Z,5.37
2019-03-26T23:46:27.636Z,5.43
2019-03-26T23:48:54.845Z,5.23
2019-03-26T23:51:22.080Z,5.26
2019-03-26T23:53:49.401Z,5.23
2019-03-26T23:56:16.743Z,4.98
2019-03-26T23:58:43.957Z,4.98
